createdAt,value
2023-05-20T00:00:51.255Z,12.30
2023-05-20T00:03:20.498Z,12.30
2023-05-20T00:05:48.487Z,12.40
2023-05-20T00:08:16.462Z,12.30
2023-05-20T00:10:44.056Z,12.40
2023-05-20T00:13:11.745Z,12.30
2023-05-20T00:15:39.358Z,12.20
2023-05-20T00:18:07.016Z,12.10
2023-05-20T00:20:34.565Z,12.10
2023-05-20T00:23:02.103Z,12.10
2023-05-20T00:25:31.983Z,11.90
2023-05-20T00:27:59.749Z,11.80
2023-05-20T00:30:27.320Z,12.00
2023-05-20T00:32:54.906Z,12.20
2023-05-20T00:35:22.560Z,12.30
2023-05-20T00:37:50.044Z,12.30
2023-05-20T00:40:17.756Z,12.20
2023-05-20T00:42:45.353Z,12.30
2023-05-20T00:45:12.976Z,12.40
2023-05-20T00:47:40.690Z,12.40
2023-05-20T00:50:10.346Z,12.40
2023-05-20T00:52:39.154Z,12.30
2023-05-20T00:55:07.315Z,12.20
2023-05-20T00:57:34.998Z,12.20
2023-05-20T01:00:05.560Z,12.30
2023-05-20T01:02:33.598Z,12.30
2023-05-20T01:05:01.699Z,12.30
2023-05-20T01:07:29.353Z,12.30
2023-05-20T01:09:57.158Z,12.20
2023-05-20T01:12:40.172Z,12.10
2023-05-20T01:15:12.932Z,12.00
2023-05-20T01:17:47.551Z,12.00
2023-05-20T01:20:15.587Z,12.00
2023-05-20T01:23:09.248Z,12.00
2023-05-20T01:25:36.959Z,11.90
2023-05-20T01:28:05.348Z,11.90
2023-05-20T01:30:38.433Z,11.80
2023-05-20T01:33:11.504Z,11.70
2023-05-20T01:35:41.387Z,11.80
2023-05-20T01:38:09.482Z,11.70
2023-05-20T01:40:37.847Z,11.70
2023-05-20T01:43:06.300Z,11.60
2023-05-20T01:45:34.217Z,11.60
2023-05-20T01:48:03.095Z,11.50
2023-05-20T01:50:30.762Z,11.40
2023-05-20T01:52:58.463Z,11.50
2023-05-20T01:55:26.180Z,11.50
2023-05-20T01:57:53.804Z,11.50
2023-05-20T02:00:21.652Z,11.60
2023-05-20T02:02:49.471Z,11.40
2023-05-20T02:05:17.325Z,11.30
2023-05-20T02:07:44.953Z,11.40
2023-05-20T02:10:12.520Z,11.40
2023-05-20T02:12:40.150Z,11.30
2023-05-20T02:15:08.236Z,11.10
2023-05-20T02:17:36.262Z,11.20
2023-05-20T02:20:07.881Z,11.30
2023-05-20T02:22:35.807Z,11.30
2023-05-20T02:25:03.621Z,11.40
2023-05-20T02:27:31.551Z,11.30
2023-05-20T02:29:59.387Z,11.20
2023-05-20T02:32:28.510Z,11.30
2023-05-20T02:34:56.264Z,11.30
2023-05-20T02:37:24.331Z,11.30
2023-05-20T02:39:51.899Z,11.10
2023-05-20T02:42:19.622Z,11.20
2023-05-20T02:44:47.916Z,11.20
2023-05-20T02:47:15.683Z,11.10
2023-05-20T02:49:43.397Z,11.10
2023-05-20T02:52:11.297Z,11.00
2023-05-20T02:54:38.890Z,11.00
2023-05-20T02:57:06.579Z,11.00
2023-05-20T02:59:34.259Z,10.90
2023-05-20T03:02:02.061Z,10.80
2023-05-20T03:04:29.714Z,10.80
2023-05-20T03:06:58.098Z,10.90
2023-05-20T03:09:25.920Z,10.70
2023-05-20T03:11:53.745Z,10.80
2023-05-20T03:14:21.332Z,10.80
2023-05-20T03:16:49.206Z,10.80
2023-05-20T03:19:16.916Z,10.80
2023-05-20T03:21:44.569Z,10.70
2023-05-20T03:24:12.122Z,10.70
2023-05-20T03:26:43.315Z,10.80
2023-05-20T03:29:11.245Z,10.80
2023-05-20T03:31:38.842Z,10.80
2023-05-20T03:34:06.487Z,10.80
2023-05-20T03:36:34.200Z,10.90
2023-05-20T03:39:04.682Z,10.80
2023-05-20T03:41:33.336Z,10.90
2023-05-20T03:44:01.276Z,10.90
2023-05-20T03:46:32.725Z,10.80
2023-05-20T03:49:02.202Z,10.90
2023-05-20T03:51:29.938Z,10.80
2023-05-20T03:53:57.501Z,10.90
2023-05-20T03:56:25.332Z,10.80
2023-05-20T03:58:53.759Z,10.80
2023-05-20T04:01:21.411Z,10.70
2023-05-20T04:03:49.155Z,10.80
2023-05-20T04:06:16.859Z,10.80
2023-05-20T04:08:44.392Z,10.80
2023-05-20T04:11:11.888Z,11.00
2023-05-20T04:13:39.586Z,11.20
2023-05-20T04:16:07.431Z,11.20
2023-05-20T04:18:39.293Z,11.20
2023-05-20T04:21:08.335Z,11.30
2023-05-20T04:23:35.851Z,11.40
2023-05-20T04:26:03.380Z,11.60
2023-05-20T04:28:31.649Z,12.00
2023-05-20T04:31:00.664Z,12.20
2023-05-20T04:33:28.437Z,12.50
2023-05-20T04:35:58.885Z,12.60
2023-05-20T04:38:30.278Z,12.80
2023-05-20T04:40:58.418Z,13.00
2023-05-20T04:43:30.405Z,13.30
2023-05-20T04:45:58.530Z,13.70
2023-05-20T04:48:26.258Z,14.50
2023-05-20T04:50:54.649Z,15.50
2023-05-20T04:53:23.521Z,16.40
2023-05-20T04:55:54.809Z,17.00
2023-05-20T04:58:24.533Z,17.80
2023-05-20T05:00:53.334Z,18.50
2023-05-20T05:03:20.963Z,18.90
2023-05-20T05:05:48.608Z,19.00
2023-05-20T05:08:17.537Z,19.40
2023-05-20T05:10:46.666Z,19.80
2023-05-20T05:13:14.434Z,20.10
2023-05-20T05:15:42.024Z,20.30
2023-05-20T05:18:09.920Z,20.30
2023-05-20T05:20:37.635Z,20.40
2023-05-20T05:23:05.321Z,20.20
2023-05-20T05:25:33.537Z,19.90
2023-05-20T05:28:01.528Z,20.00
2023-05-20T05:30:29.166Z,20.00
2023-05-20T05:32:56.875Z,19.40
2023-05-20T05:35:24.764Z,19.40
2023-05-20T05:37:52.319Z,19.80
2023-05-20T05:40:19.870Z,20.60
2023-05-20T05:42:47.455Z,20.80
2023-05-20T05:45:15.122Z,21.30
2023-05-20T05:47:43.345Z,21.70
2023-05-20T05:50:11.178Z,21.70
2023-05-20T05:52:38.946Z,21.80
2023-05-20T05:55:07.266Z,22.80
2023-05-20T05:57:34.914Z,22.90
2023-05-20T06:00:02.712Z,23.40
2023-05-20T06:02:30.459Z,23.70
2023-05-20T06:04:58.124Z,23.40
2023-05-20T06:07:25.626Z,22.90
2023-05-20T06:09:53.302Z,23.90
2023-05-20T06:12:21.441Z,23.90
2023-05-20T06:14:49.394Z,22.90
2023-05-20T06:17:16.924Z,22.30
2023-05-20T06:19:44.511Z,22.40
2023-05-20T06:22:12.155Z,22.10
2023-05-20T06:24:39.903Z,22.90
2023-05-20T06:27:07.660Z,23.50
2023-05-20T06:29:35.319Z,24.10
2023-05-20T06:32:02.893Z,24.10
2023-05-20T06:34:30.576Z,24.20
2023-05-20T06:36:58.094Z,24.60
2023-05-20T06:39:25.782Z,25.90
2023-05-20T06:41:53.806Z,26.00
2023-05-20T06:44:21.449Z,26.40
2023-05-20T06:46:49.675Z,27.00
2023-05-20T06:49:17.414Z,26.60
2023-05-20T06:51:44.942Z,26.80
2023-05-20T06:54:12.558Z,25.70
2023-05-20T06:56:40.187Z,26.10
2023-05-20T06:59:08.132Z,26.40
2023-05-20T07:01:35.853Z,27.60
2023-05-20T07:04:03.746Z,28.30
2023-05-20T07:06:31.745Z,28.40
2023-05-20T07:08:59.272Z,28.70
2023-05-20T07:11:27.171Z,27.20
2023-05-20T07:13:54.977Z,27.00
2023-05-20T07:16:23.039Z,27.00
2023-05-20T07:18:50.760Z,27.60
2023-05-20T07:21:18.536Z,26.50
2023-05-20T07:23:46.397Z,26.60
2023-05-20T07:26:13.994Z,26.10
2023-05-20T07:28:41.585Z,26.10
2023-05-20T07:31:10.005Z,25.40
2023-05-20T07:33:37.743Z,23.80
2023-05-20T07:36:06.537Z,25.30
2023-05-20T07:38:35.620Z,27.30
2023-05-20T07:41:03.542Z,27.60
2023-05-20T07:43:31.302Z,26.90
2023-05-20T07:45:58.873Z,25.50
2023-05-20T07:48:26.508Z,25.70
2023-05-20T07:50:54.181Z,26.90
2023-05-20T07:53:21.777Z,26.60
2023-05-20T07:55:49.531Z,25.10
2023-05-20T07:58:17.178Z,25.30
2023-05-20T08:00:45.332Z,25.50
2023-05-20T08:03:14.424Z,25.10
2023-05-20T08:05:42.428Z,24.70
2023-05-20T08:08:10.726Z,24.10
2023-05-20T08:10:38.267Z,24.30
2023-05-20T08:13:05.825Z,23.60
2023-05-20T08:15:34.191Z,22.90
2023-05-20T08:18:02.276Z,24.20
2023-05-20T08:20:30.077Z,25.00
2023-05-20T08:22:57.772Z,26.50
2023-05-20T08:25:25.410Z,26.00
2023-05-20T08:27:52.967Z,25.70
2023-05-20T08:30:20.535Z,26.20
2023-05-20T08:32:49.211Z,25.10
2023-05-20T08:35:16.943Z,26.00
2023-05-20T08:37:44.537Z,25.90
2023-05-20T08:40:13.446Z,26.80
2023-05-20T08:42:44.649Z,24.20
2023-05-20T08:45:13.817Z,24.30
2023-05-20T08:47:46.408Z,24.10
2023-05-20T08:50:15.265Z,23.60
2023-05-20T08:52:47.396Z,23.30
2023-05-20T08:55:48.510Z,23.70
2023-05-20T08:58:17.881Z,24.20
2023-05-20T09:00:45.844Z,24.10
2023-05-20T09:03:13.734Z,24.20
2023-05-20T09:05:41.524Z,24.40
2023-05-20T09:08:13.181Z,24.90
2023-05-20T09:10:42.151Z,25.70
2023-05-20T09:13:11.611Z,25.50
2023-05-20T09:15:39.543Z,25.10
2023-05-20T09:18:08.501Z,26.10
2023-05-20T09:20:38.047Z,25.60
2023-05-20T09:23:08.847Z,26.10
2023-05-20T09:25:37.515Z,25.90
2023-05-20T09:28:07.696Z,26.40
2023-05-20T09:30:38.175Z,25.70
2023-05-20T09:33:07.815Z,25.90
2023-05-20T09:35:39.226Z,25.00
2023-05-20T09:38:10.330Z,24.30
2023-05-20T09:40:38.123Z,24.30
2023-05-20T09:43:11.611Z,23.80
2023-05-20T09:45:39.923Z,23.70
2023-05-20T09:48:10.938Z,24.60
2023-05-20T09:50:39.525Z,23.80
2023-05-20T09:53:09.036Z,24.70
2023-05-20T09:55:37.874Z,24.40
2023-05-20T09:58:06.268Z,24.70
2023-05-20T10:00:34.701Z,25.80
2023-05-20T10:03:02.997Z,26.60
2023-05-20T10:05:47.635Z,26.10
2023-05-20T10:08:35.422Z,26.60
2023-05-20T10:11:06.082Z,26.20
2023-05-20T10:13:36.422Z,26.60
2023-05-20T10:16:31.814Z,27.00
2023-05-20T10:19:20.803Z,26.40
2023-05-20T10:21:58.179Z,27.90
2023-05-20T10:24:33.785Z,27.20
2023-05-20T10:27:07.768Z,27.10
2023-05-20T10:29:56.569Z,26.80
2023-05-20T10:32:34.462Z,27.90
2023-05-20T10:35:05.454Z,26.20
2023-05-20T10:37:42.545Z,25.70
2023-05-20T10:40:15.185Z,24.90
2023-05-20T10:42:43.727Z,25.40
2023-05-20T10:45:11.845Z,25.40
2023-05-20T10:47:57.062Z,26.00
2023-05-20T10:50:38.784Z,26.00
2023-05-20T10:53:13.180Z,26.30
2023-05-20T10:55:52.009Z,25.60
2023-05-20T10:58:20.048Z,25.20
2023-05-20T11:00:50.916Z,25.90
2023-05-20T11:03:22.162Z,27.00
2023-05-20T11:05:51.373Z,27.60
2023-05-20T11:08:27.674Z,26.80
2023-05-20T11:10:59.615Z,25.90
2023-05-20T11:13:27.377Z,25.90
2023-05-20T11:15:55.751Z,26.40
2023-05-20T11:18:23.455Z,26.60
2023-05-20T11:20:51.289Z,27.10
2023-05-20T11:23:19.470Z,27.20
2023-05-20T11:25:47.158Z,26.90
2023-05-20T11:28:14.928Z,26.60
2023-05-20T11:30:45.785Z,26.60
2023-05-20T11:33:14.723Z,26.50
2023-05-20T11:35:50.965Z,26.90
2023-05-20T11:38:19.234Z,26.30
2023-05-20T11:40:54.430Z,25.10
2023-05-20T11:43:23.524Z,25.50
2023-05-20T11:45:55.990Z,24.70
2023-05-20T11:48:24.421Z,23.90
2023-05-20T11:50:54.285Z,23.30
2023-05-20T11:53:24.082Z,23.00
2023-05-20T11:55:54.757Z,22.60
2023-05-20T11:58:24.166Z,22.20
2023-05-20T12:00:57.130Z,22.10
2023-05-20T12:03:33.458Z,22.20
2023-05-20T12:06:03.068Z,22.10
2023-05-20T12:08:30.677Z,22.70
2023-05-20T12:10:58.229Z,22.50
2023-05-20T12:13:25.770Z,22.10
2023-05-20T12:15:53.657Z,22.20
2023-05-20T12:18:22.165Z,22.30
2023-05-20T12:20:49.809Z,22.40
2023-05-20T12:23:17.477Z,22.30
2023-05-20T12:25:47.439Z,22.30
2023-05-20T12:28:15.190Z,22.50
2023-05-20T12:30:42.718Z,22.50
2023-05-20T12:33:10.484Z,22.50
2023-05-20T12:35:40.397Z,22.20
2023-05-20T12:38:08.393Z,22.30
2023-05-20T12:40:37.428Z,22.30
2023-05-20T12:43:06.374Z,22.50
2023-05-20T12:45:34.077Z,22.60
2023-05-20T12:48:02.121Z,22.20
2023-05-20T12:50:29.958Z,22.60
2023-05-20T12:52:57.654Z,22.80
2023-05-20T12:55:25.202Z,22.70
2023-05-20T12:57:52.877Z,22.80
2023-05-20T13:00:20.421Z,22.50
2023-05-20T13:02:48.460Z,22.00
2023-05-20T13:05:16.240Z,22.20
2023-05-20T13:07:43.874Z,22.70
2023-05-20T13:10:11.746Z,22.80
2023-05-20T13:12:39.601Z,22.50
2023-05-20T13:15:08.015Z,22.20
2023-05-20T13:17:35.744Z,21.90
2023-05-20T13:20:04.078Z,22.10
2023-05-20T13:22:31.847Z,22.50
2023-05-20T13:24:59.551Z,22.90
2023-05-20T13:27:27.435Z,23.10
2023-05-20T13:29:55.136Z,23.30
2023-05-20T13:32:22.971Z,23.30
2023-05-20T13:34:50.780Z,23.20
2023-05-20T13:37:18.459Z,22.80
2023-05-20T13:39:46.049Z,22.50
2023-05-20T13:42:13.803Z,22.60
2023-05-20T13:44:41.512Z,22.50
2023-05-20T13:47:09.381Z,22.30
2023-05-20T13:49:37.036Z,22.10
2023-05-20T13:52:07.015Z,22.10
2023-05-20T13:54:34.634Z,22.20
2023-05-20T13:57:03.425Z,22.20
2023-05-20T13:59:31.228Z,22.10
2023-05-20T14:01:58.967Z,22.20
2023-05-20T14:04:26.872Z,22.30
2023-05-20T14:06:54.809Z,22.40
2023-05-20T14:09:22.541Z,22.50
2023-05-20T14:11:51.585Z,22.30
2023-05-20T14:14:19.107Z,22.60
2023-05-20T14:16:46.709Z,22.80
2023-05-20T14:19:14.443Z,22.70
2023-05-20T14:21:42.146Z,23.10
2023-05-20T14:24:09.732Z,23.10
2023-05-20T14:26:37.649Z,22.80
2023-05-20T14:29:05.371Z,23.00
2023-05-20T14:31:33.233Z,22.90
2023-05-20T14:34:01.040Z,22.70
2023-05-20T14:36:28.555Z,22.70
2023-05-20T14:38:56.102Z,22.60
2023-05-20T14:41:23.809Z,22.80
2023-05-20T14:43:51.777Z,22.80
2023-05-20T14:46:19.460Z,22.40
2023-05-20T14:48:47.221Z,22.10
2023-05-20T14:51:14.981Z,21.70
2023-05-20T14:53:42.694Z,21.80
2023-05-20T14:56:10.282Z,22.00
2023-05-20T14:58:38.053Z,22.10
2023-05-20T15:01:05.792Z,21.60
2023-05-20T15:03:33.443Z,21.80
2023-05-20T15:06:01.236Z,21.50
2023-05-20T15:08:28.895Z,21.70
2023-05-20T15:10:56.806Z,21.90
2023-05-20T15:13:24.388Z,22.00
2023-05-20T15:15:52.032Z,21.90
2023-05-20T15:18:19.736Z,21.80
2023-05-20T15:20:47.394Z,22.00
2023-05-20T15:23:15.192Z,22.20
2023-05-20T15:25:42.792Z,22.00
2023-05-20T15:28:10.477Z,22.00
2023-05-20T15:30:38.337Z,21.90
2023-05-20T15:33:06.061Z,21.50
2023-05-20T15:35:33.798Z,21.40
2023-05-20T15:38:01.453Z,21.20
2023-05-20T15:40:29.270Z,21.10
2023-05-20T15:42:57.393Z,21.10
2023-05-20T15:45:24.936Z,21.10
2023-05-20T15:47:52.781Z,20.90
2023-05-20T15:50:20.705Z,20.90
2023-05-20T15:52:48.613Z,21.20
2023-05-20T15:55:16.984Z,21.10
2023-05-20T15:57:44.892Z,21.20
2023-05-20T16:00:14.279Z,21.30
2023-05-20T16:02:43.089Z,20.80
2023-05-20T16:05:10.938Z,20.30
2023-05-20T16:07:38.824Z,20.40
2023-05-20T16:10:06.996Z,20.50
2023-05-20T16:12:34.710Z,20.80
2023-05-20T16:15:02.476Z,21.00
2023-05-20T16:17:30.304Z,21.60
2023-05-20T16:19:57.937Z,21.70
2023-05-20T16:22:25.643Z,21.60
2023-05-20T16:24:53.353Z,21.50
2023-05-20T16:27:21.335Z,20.80
2023-05-20T16:29:50.663Z,20.70
2023-05-20T16:32:20.373Z,20.50
2023-05-20T16:34:48.876Z,20.40
2023-05-20T16:37:16.542Z,20.70
2023-05-20T16:39:44.229Z,20.40
2023-05-20T16:42:11.985Z,20.40
2023-05-20T16:44:39.815Z,20.40
2023-05-20T16:47:09.012Z,20.30
2023-05-20T16:49:36.651Z,20.20
2023-05-20T16:52:04.789Z,20.30
2023-05-20T16:54:32.868Z,20.60
2023-05-20T16:57:00.373Z,20.90
2023-05-20T16:59:30.436Z,21.10
2023-05-20T17:01:58.295Z,21.10
2023-05-20T17:04:26.035Z,21.30
2023-05-20T17:06:53.644Z,20.80
2023-05-20T17:09:21.441Z,20.50
2023-05-20T17:11:49.032Z,20.40
2023-05-20T17:14:16.546Z,20.30
2023-05-20T17:16:44.186Z,20.20
2023-05-20T17:19:11.811Z,20.10
2023-05-20T17:21:39.645Z,20.30
2023-05-20T17:24:07.403Z,20.40
2023-05-20T17:26:35.024Z,20.50
2023-05-20T17:29:02.587Z,20.40
2023-05-20T17:31:30.184Z,20.40
2023-05-20T17:33:57.886Z,20.50
2023-05-20T17:36:25.761Z,20.60
2023-05-20T17:38:53.566Z,20.70
2023-05-20T17:41:22.071Z,20.70
2023-05-20T17:43:49.745Z,20.70
2023-05-20T17:46:17.435Z,20.60
2023-05-20T17:48:45.870Z,20.30
2023-05-20T17:51:13.541Z,20.10
2023-05-20T17:53:41.217Z,19.80
2023-05-20T17:56:08.937Z,19.80
2023-05-20T17:58:36.516Z,19.60
2023-05-20T18:01:04.193Z,19.60
2023-05-20T18:03:32.216Z,19.70
2023-05-20T18:05:59.794Z,19.70
2023-05-20T18:08:27.363Z,19.70
2023-05-20T18:10:55.827Z,19.70
2023-05-20T18:13:23.369Z,19.70
2023-05-20T18:15:51.431Z,19.70
2023-05-20T18:18:19.062Z,19.60
2023-05-20T18:20:46.715Z,19.60
2023-05-20T18:23:14.431Z,19.60
2023-05-20T18:25:42.875Z,19.50
2023-05-20T18:28:11.369Z,19.40
2023-05-20T18:30:39.096Z,19.20
2023-05-20T18:33:06.743Z,19.30
2023-05-20T18:35:34.315Z,19.30
2023-05-20T18:38:01.988Z,19.40
2023-05-20T18:40:29.503Z,19.30
2023-05-20T18:42:57.062Z,19.30
2023-05-20T18:45:25.184Z,19.40
2023-05-20T18:47:54.706Z,19.50
2023-05-20T18:50:22.431Z,19.40
2023-05-20T18:52:50.272Z,19.30
2023-05-20T18:55:18.103Z,19.20
2023-05-20T18:57:45.706Z,19.10
2023-05-20T19:00:13.972Z,19.10
2023-05-20T19:02:42.152Z,19.10
2023-05-20T19:05:10.978Z,18.90
2023-05-20T19:07:41.716Z,18.80
2023-05-20T19:10:09.921Z,18.70
2023-05-20T19:12:37.607Z,18.60
2023-05-20T19:15:05.627Z,18.60
2023-05-20T19:17:33.271Z,18.70
2023-05-20T19:20:00.995Z,18.70
2023-05-20T19:22:28.571Z,18.80
2023-05-20T19:24:56.155Z,18.80
2023-05-20T19:27:23.695Z,18.80
2023-05-20T19:29:51.519Z,18.80
2023-05-20T19:32:19.107Z,18.80
2023-05-20T19:34:46.803Z,18.70
2023-05-20T19:37:14.455Z,18.70
2023-05-20T19:39:42.063Z,18.70
2023-05-20T19:42:09.829Z,18.70
2023-05-20T19:44:37.546Z,18.70
2023-05-20T19:47:06.826Z,18.80
2023-05-20T19:49:34.431Z,18.80
2023-05-20T19:52:02.154Z,18.80
2023-05-20T19:54:29.763Z,18.60
2023-05-20T19:56:57.597Z,18.60
2023-05-20T19:59:25.254Z,18.60
2023-05-20T20:01:52.955Z,18.50
2023-05-20T20:04:20.594Z,18.40
2023-05-20T20:06:48.849Z,18.50
2023-05-20T20:09:16.478Z,18.50
2023-05-20T20:11:43.973Z,18.40
2023-05-20T20:14:11.671Z,18.40
2023-05-20T20:16:39.280Z,18.40
2023-05-20T20:19:06.887Z,18.40
2023-05-20T20:21:36.404Z,18.30
2023-05-20T20:24:04.131Z,18.40
2023-05-20T20:26:34.722Z,18.40
2023-05-20T20:29:02.561Z,18.50
2023-05-20T20:31:30.151Z,18.50
2023-05-20T20:33:57.680Z,18.50
2023-05-20T20:36:25.468Z,18.50
2023-05-20T20:38:53.049Z,18.50
2023-05-20T20:41:21.050Z,18.50
2023-05-20T20:43:48.672Z,18.30
2023-05-20T20:46:16.636Z,18.20
2023-05-20T20:48:47.172Z,18.00
2023-05-20T20:51:16.109Z,17.90
2023-05-20T20:53:46.355Z,17.90
2023-05-20T20:56:13.990Z,17.70
2023-05-20T20:58:41.713Z,17.60
2023-05-20T21:01:10.199Z,17.50
2023-05-20T21:03:40.428Z,17.40
2023-05-20T21:06:08.326Z,17.40
2023-05-20T21:08:35.990Z,17.30
2023-05-20T21:11:03.543Z,17.20
2023-05-20T21:13:36.111Z,17.10
2023-05-20T21:16:04.881Z,16.90
2023-05-20T21:18:32.510Z,16.90
2023-05-20T21:21:00.180Z,16.90
2023-05-20T21:23:27.800Z,16.80
2023-05-20T21:25:55.490Z,16.80
2023-05-20T21:28:23.138Z,16.90
2023-05-20T21:30:50.856Z,16.90
2023-05-20T21:33:18.520Z,16.80
2023-05-20T21:35:46.233Z,16.70
2023-05-20T21:38:13.954Z,16.60
2023-05-20T21:40:42.396Z,16.50
2023-05-20T21:43:10.265Z,16.40
2023-05-20T21:45:37.962Z,16.30
2023-05-20T21:48:06.451Z,16.30
2023-05-20T21:50:34.222Z,16.30
2023-05-20T21:53:01.873Z,16.20
2023-05-20T21:55:29.536Z,16.10
2023-05-20T21:57:57.262Z,16.00
2023-05-20T22:00:25.025Z,16.00
2023-05-20T22:02:53.502Z,15.90
2023-05-20T22:05:21.361Z,15.80
2023-05-20T22:07:51.390Z,15.80
2023-05-20T22:10:22.443Z,15.70
2023-05-20T22:12:51.055Z,15.60
2023-05-20T22:15:18.742Z,15.60
2023-05-20T22:17:47.702Z,15.60
2023-05-20T22:20:15.416Z,15.60
2023-05-20T22:22:43.054Z,15.60
2023-05-20T22:25:11.123Z,15.50
2023-05-20T22:27:39.477Z,15.30
2023-05-20T22:30:08.498Z,15.50
2023-05-20T22:32:36.328Z,15.30
2023-05-20T22:35:04.623Z,15.10
2023-05-20T22:37:32.208Z,15.00
2023-05-20T22:39:59.862Z,15.00
2023-05-20T22:42:27.388Z,14.90
2023-05-20T22:44:55.160Z,14.80
2023-05-20T22:47:22.888Z,14.80
2023-05-20T22:49:50.970Z,15.00
2023-05-20T22:52:18.786Z,15.00
2023-05-20T22:54:46.434Z,14.90
2023-05-20T22:57:14.048Z,14.90
2023-05-20T22:59:41.752Z,14.90
2023-05-20T23:02:09.406Z,14.80
2023-05-20T23:04:37.069Z,14.70
2023-05-20T23:07:05.782Z,14.80
2023-05-20T23:09:33.570Z,14.70
2023-05-20T23:12:01.292Z,14.70
2023-05-20T23:14:28.981Z,14.70
2023-05-20T23:16:56.705Z,14.70
2023-05-20T23:19:24.392Z,14.80
2023-05-20T23:21:52.073Z,14.70
2023-05-20T23:24:19.869Z,14.70
2023-05-20T23:26:47.639Z,14.60
2023-05-20T23:29:15.243Z,14.60
2023-05-20T23:31:43.123Z,14.70
2023-05-20T23:34:10.815Z,14.60
2023-05-20T23:36:42.111Z,14.60
2023-05-20T23:39:09.807Z,14.50
2023-05-20T23:41:37.358Z,14.40
2023-05-20T23:44:05.163Z,14.40
2023-05-20T23:46:32.876Z,14.40
2023-05-20T23:49:02.100Z,14.40
2023-05-20T23:51:29.718Z,14.50
2023-05-20T23:53:57.617Z,14.50
2023-05-20T23:56:25.197Z,14.40
2023-05-20T23:58:52.675Z,14.40
